Alplaus, New York
Current Conditions -  °F | °C
As of 9:23 AM on Friday 24 Oct 2014 (Local Time) from KALB Reporting Station
Drizzle Drizzle  
Wind Chill: 44°   Ceiling: 600
Heat Index: 46°   Visibility: 1.5mi
Dew Point: 44°   Wind: 5mph
Humidity: 93%   Direction: 20°NNE
Pressure: 29.86"   Gusts: NA
Location:  42.86°N, 73.9°W
Report Text: KALB 241323Z 02004KT 1 1/2SM -DZ BR BKN006 OVC012 08/07 A2986 RMK AO2 SFC VIS 2 VIS 1V3 CIG 004V008 P0000 T00780067 $
Loading
Personal Weather Stations






























Interactive Weather Map
Tropical Storm Tracking
New forecast layout! Learn more

10-Day Weather Forecast

Advertisements
Track Severe Weather on mobile